Frederick, MD (21703)

4:51 AM EDT on July 29, 2016 (GMT -0400)
Braddock Heights, Md | | Change Station

Elev 866 ft 39.41 °N, 77.51 °W | Updated 1 minute ago

Rain
Rain
70.3 °F
Feels Like 70.3 °F
N
0.7
Wind Variable Wind from North
Gusts 0.7 mph

Today
High -- | Low -- °F
--% Chance of Precip.
Yesterday
High -- | Low -- °F
Precip. -- in
Pressure 29.85 in
Visibility 7.0 miles
Clouds Scattered Clouds 3900 ft
Mostly Cloudy 4500 ft
Overcast 8000 ft
Dew Point 70 °F
Humidity 97%
Rainfall 0.02 in
Snow Depth Not available.
6:07 AM 8:24 PM
Waning Crescent, 24% visible
METAR KFDK 290825Z AUTO 00000KT 7SM RA SCT039 BKN045 OVC080 22/22 A2985 RMK AO2 LTG DSNT E P0001
Pressure 29.85 in
Visibility 7.0 miles
Clouds Scattered Clouds 3900 ft
Mostly Cloudy 4500 ft
Overcast 8000 ft
Dew Point 70 °F
Humidity 97%
Rainfall 0.02 in
Snow Depth Not available.
6:07 AM 8:24 PM
Waning Crescent, 24% visible
METAR KFDK 290825Z AUTO 00000KT 7SM RA SCT039 BKN045 OVC080 22/22 A2985 RMK AO2 LTG DSNT E P0001

10-Day Weather Forecast

Almanac

Astronomy

Jul. 29, 2016 Rise Set
Actual Time
Civil Twilight
Nautical Twilight
Astronomical Twilight
Moon
Length of Visible Light
Length of Day
Tomorrow will be .
, % of the Moon is Illuminated

Today's Extremes

State Highs State Lows

Community

WunderPhotos

Upload Photos

1,928,300 photos uploaded!

WunderBlog® & News

Nearby

Air Quality

  Air Quality AQ Index Pollutant
Not available.

Snow Depth

Station Depth Elevation

Earthquake Activity

City Distance Mag. Time & Date
Minimum magnitude displayed is 2.5.

Coastal Water Temperatures

Place Temperature

Stations

Nearby Weather Stations

Station Location Temp. Windchill Dew Point Humidity Wind Precip. Elev Updated Type
                   

Watches & Warnings

There are currently no watches in effect.